sensor_id;sensor_type;location;lat;lon;timestamp;P1;durP1;ratioP1;P2;durP2;ratioP2
10890;SDS011;5498;50.928;11.598;2022-08-19T00:01:08;1076.40;;;984.43;;
10890;SDS011;5498;50.928;11.598;2022-08-19T00:04:10;1101.13;;;999.90;;
10890;SDS011;5498;50.928;11.598;2022-08-19T00:07:14;1086.83;;;994.23;;
10890;SDS011;5498;50.928;11.598;2022-08-19T00:10:18;1068.97;;;977.53;;
10890;SDS011;5498;50.928;11.598;2022-08-19T00:13:21;1081.27;;;988.73;;
10890;SDS011;5498;50.928;11.598;2022-08-19T00:16:23;1090.53;;;996.70;;
10890;SDS011;5498;50.928;11.598;2022-08-19T00:19:26;1095.27;;;998.73;;
10890;SDS011;5498;50.928;11.598;2022-08-19T00:22:28;1086.27;;;993.00;;
10890;SDS011;5498;50.928;11.598;2022-08-19T00:25:31;1099.20;;;999.23;;
10890;SDS011;5498;50.928;11.598;2022-08-19T00:28:33;1063.27;;;972.33;;
10890;SDS011;5498;50.928;11.598;2022-08-19T00:31:35;1087.60;;;994.07;;
10890;SDS011;5498;50.928;11.598;2022-08-19T00:34:37;1081.63;;;989.17;;
10890;SDS011;5498;50.928;11.598;2022-08-19T00:37:39;1080.10;;;987.87;;
10890;SDS011;5498;50.928;11.598;2022-08-19T00:40:44;1081.00;;;988.23;;
10890;SDS011;5498;50.928;11.598;2022-08-19T00:43:56;1065.87;;;973.63;;
10890;SDS011;5498;50.928;11.598;2022-08-19T00:47:00;1069.83;;;977.73;;
10890;SDS011;5498;50.928;11.598;2022-08-19T00:50:02;1073.10;;;981.30;;
10890;SDS011;5498;50.928;11.598;2022-08-19T00:53:06;1054.90;;;964.13;;
10890;SDS011;5498;50.928;11.598;2022-08-19T00:56:09;1076.43;;;983.87;;
10890;SDS011;5498;50.928;11.598;2022-08-19T00:59:11;1059.27;;;968.13;;
10890;SDS011;5498;50.928;11.598;2022-08-19T01:02:15;1083.63;;;991.40;;
10890;SDS011;5498;50.928;11.598;2022-08-19T01:05:18;1070.47;;;978.90;;
10890;SDS011;5498;50.928;11.598;2022-08-19T01:08:23;1069.37;;;977.73;;
10890;SDS011;5498;50.928;11.598;2022-08-19T01:11:27;1068.97;;;977.20;;
10890;SDS011;5498;50.928;11.598;2022-08-19T01:14:29;1066.47;;;975.20;;
10890;SDS011;5498;50.928;11.598;2022-08-19T01:17:31;1071.00;;;979.47;;
10890;SDS011;5498;50.928;11.598;2022-08-19T01:20:35;1060.07;;;969.00;;
10890;SDS011;5498;50.928;11.598;2022-08-19T01:23:38;1063.00;;;971.60;;
10890;SDS011;5498;50.928;11.598;2022-08-19T01:26:43;1050.33;;;960.03;;
10890;SDS011;5498;50.928;11.598;2022-08-19T01:29:48;1067.57;;;975.53;;
10890;SDS011;5498;50.928;11.598;2022-08-19T01:32:50;1061.37;;;970.17;;
10890;SDS011;5498;50.928;11.598;2022-08-19T01:35:52;1068.60;;;976.70;;
10890;SDS011;5498;50.928;11.598;2022-08-19T01:38:56;1057.07;;;966.47;;
10890;SDS011;5498;50.928;11.598;2022-08-19T01:41:59;1040.23;;;950.07;;
10890;SDS011;5498;50.928;11.598;2022-08-19T01:45:03;892.40;;;810.47;;
10890;SDS011;5498;50.928;11.598;2022-08-19T01:48:07;952.90;;;867.73;;
10890;SDS011;5498;50.928;11.598;2022-08-19T01:51:10;1000.47;;;913.57;;
10890;SDS011;5498;50.928;11.598;2022-08-19T01:54:16;1035.33;;;945.87;;
10890;SDS011;5498;50.928;11.598;2022-08-19T01:57:19;1050.80;;;960.50;;
10890;SDS011;5498;50.928;11.598;2022-08-19T02:00:22;1034.77;;;945.83;;
10890;SDS011;5498;50.928;11.598;2022-08-19T02:03:27;1034.90;;;946.23;;
10890;SDS011;5498;50.928;11.598;2022-08-19T02:06:29;1058.77;;;967.83;;
10890;SDS011;5498;50.928;11.598;2022-08-19T02:09:32;1059.90;;;969.03;;
10890;SDS011;5498;50.928;11.598;2022-08-19T02:12:35;1060.53;;;969.60;;
10890;SDS011;5498;50.928;11.598;2022-08-19T02:15:37;1054.93;;;964.63;;
10890;SDS011;5498;50.928;11.598;2022-08-19T02:18:39;1052.77;;;962.47;;
10890;SDS011;5498;50.928;11.598;2022-08-19T02:21:41;1093.00;;;999.23;;
10890;SDS011;5498;50.928;11.598;2022-08-19T02:24:44;1102.10;;;999.90;;
10890;SDS011;5498;50.928;11.598;2022-08-19T02:27:47;1080.10;;;987.97;;
10890;SDS011;5498;50.928;11.598;2022-08-19T02:30:49;1091.30;;;996.87;;
10890;SDS011;5498;50.928;11.598;2022-08-19T02:33:51;1102.93;;;999.90;;
10890;SDS011;5498;50.928;11.598;2022-08-19T02:36:56;1092.70;;;998.07;;
10890;SDS011;5498;50.928;11.598;2022-08-19T02:39:59;1089.33;;;995.13;;
10890;SDS011;5498;50.928;11.598;2022-08-19T02:43:00;1076.70;;;985.20;;
10890;SDS011;5498;50.928;11.598;2022-08-19T02:46:11;1083.67;;;991.77;;
10890;SDS011;5498;50.928;11.598;2022-08-19T02:49:15;1079.57;;;987.90;;
10890;SDS011;5498;50.928;11.598;2022-08-19T02:52:17;1082.00;;;990.23;;
10890;SDS011;5498;50.928;11.598;2022-08-19T02:55:21;1070.90;;;979.37;;
10890;SDS011;5498;50.928;11.598;2022-08-19T02:58:23;1094.40;;;998.57;;
10890;SDS011;5498;50.928;11.598;2022-08-19T03:01:27;1071.63;;;980.13;;
10890;SDS011;5498;50.928;11.598;2022-08-19T03:04:31;1061.07;;;970.03;;
10890;SDS011;5498;50.928;11.598;2022-08-19T03:07:33;1079.60;;;987.63;;
10890;SDS011;5498;50.928;11.598;2022-08-19T03:10:40;1068.83;;;976.20;;
10890;SDS011;5498;50.928;11.598;2022-08-19T03:13:46;1026.53;;;937.87;;
10890;SDS011;5498;50.928;11.598;2022-08-19T03:16:50;1054.73;;;964.90;;
10890;SDS011;5498;50.928;11.598;2022-08-19T03:19:53;1056.20;;;965.97;;
10890;SDS011;5498;50.928;11.598;2022-08-19T03:22:55;1063.77;;;973.00;;
10890;SDS011;5498;50.928;11.598;2022-08-19T03:25:58;1062.40;;;971.43;;
10890;SDS011;5498;50.928;11.598;2022-08-19T03:29:04;1061.87;;;971.03;;
10890;SDS011;5498;50.928;11.598;2022-08-19T03:32:07;1074.13;;;982.27;;
10890;SDS011;5498;50.928;11.598;2022-08-19T03:35:08;1053.00;;;962.17;;
10890;SDS011;5498;50.928;11.598;2022-08-19T03:38:10;1085.13;;;992.83;;
10890;SDS011;5498;50.928;11.598;2022-08-19T03:41:14;1067.87;;;976.50;;
10890;SDS011;5498;50.928;11.598;2022-08-19T03:44:20;1062.93;;;971.77;;
10890;SDS011;5498;50.928;11.598;2022-08-19T03:47:24;1068.83;;;977.13;;
10890;SDS011;5498;50.928;11.598;2022-08-19T03:50:25;1082.83;;;990.20;;
10890;SDS011;5498;50.928;11.598;2022-08-19T03:53:27;1071.97;;;980.20;;
10890;SDS011;5498;50.928;11.598;2022-08-19T03:56:32;1050.50;;;960.20;;
10890;SDS011;5498;50.928;11.598;2022-08-19T03:59:36;1068.70;;;976.83;;
10890;SDS011;5498;50.928;11.598;2022-08-19T04:02:38;1069.30;;;978.10;;
10890;SDS011;5498;50.928;11.598;2022-08-19T04:05:41;1073.57;;;981.57;;
10890;SDS011;5498;50.928;11.598;2022-08-19T04:08:45;1054.10;;;963.43;;
10890;SDS011;5498;50.928;11.598;2022-08-19T04:11:51;1056.53;;;965.67;;
10890;SDS011;5498;50.928;11.598;2022-08-19T04:14:55;1084.63;;;992.17;;
10890;SDS011;5498;50.928;11.598;2022-08-19T04:17:57;1066.27;;;974.67;;
10890;SDS011;5498;50.928;11.598;2022-08-19T04:20:59;1059.70;;;968.90;;
10890;SDS011;5498;50.928;11.598;2022-08-19T04:24:02;1092.40;;;998.43;;
10890;SDS011;5498;50.928;11.598;2022-08-19T04:27:06;1075.37;;;983.33;;
10890;SDS011;5498;50.928;11.598;2022-08-19T04:30:09;1072.73;;;981.20;;
10890;SDS011;5498;50.928;11.598;2022-08-19T04:33:12;1074.70;;;983.07;;
10890;SDS011;5498;50.928;11.598;2022-08-19T04:36:16;1067.27;;;976.03;;
10890;SDS011;5498;50.928;11.598;2022-08-19T04:39:21;1077.13;;;985.03;;
10890;SDS011;5498;50.928;11.598;2022-08-19T04:42:47;1076.97;;;984.87;;
10890;SDS011;5498;50.928;11.598;2022-08-19T04:45:48;1092.90;;;996.03;;
10890;SDS011;5498;50.928;11.598;2022-08-19T04:48:50;1087.93;;;994.07;;
10890;SDS011;5498;50.928;11.598;2022-08-19T04:51:53;1058.53;;;967.43;;
10890;SDS011;5498;50.928;11.598;2022-08-19T04:54:57;1072.53;;;980.57;;
10890;SDS011;5498;50.928;11.598;2022-08-19T04:58:01;1068.83;;;976.93;;
10890;SDS011;5498;50.928;11.598;2022-08-19T05:01:04;1069.80;;;978.03;;
10890;SDS011;5498;50.928;11.598;2022-08-19T05:04:06;1090.70;;;996.97;;
10890;SDS011;5498;50.928;11.598;2022-08-19T05:07:08;1085.20;;;992.70;;
10890;SDS011;5498;50.928;11.598;2022-08-19T05:10:11;1068.97;;;977.27;;
10890;SDS011;5498;50.928;11.598;2022-08-19T05:13:15;1081.23;;;989.10;;
10890;SDS011;5498;50.928;11.598;2022-08-19T05:16:19;1086.87;;;993.47;;
10890;SDS011;5498;50.928;11.598;2022-08-19T05:19:23;1075.87;;;983.90;;
10890;SDS011;5498;50.928;11.598;2022-08-19T05:22:43;1091.50;;;995.90;;
10890;SDS011;5498;50.928;11.598;2022-08-19T05:25:47;1068.40;;;976.60;;
10890;SDS011;5498;50.928;11.598;2022-08-19T05:28:51;1062.67;;;971.03;;
10890;SDS011;5498;50.928;11.598;2022-08-19T05:31:53;1079.70;;;987.50;;
10890;SDS011;5498;50.928;11.598;2022-08-19T05:34:56;1055.13;;;964.17;;
10890;SDS011;5498;50.928;11.598;2022-08-19T05:37:58;1080.00;;;987.70;;
10890;SDS011;5498;50.928;11.598;2022-08-19T05:41:00;1077.50;;;985.27;;
10890;SDS011;5498;50.928;11.598;2022-08-19T05:44:09;1082.87;;;989.83;;
10890;SDS011;5498;50.928;11.598;2022-08-19T05:47:11;1075.63;;;983.60;;
10890;SDS011;5498;50.928;11.598;2022-08-19T05:50:15;1085.47;;;992.63;;
10890;SDS011;5498;50.928;11.598;2022-08-19T05:53:17;1075.23;;;983.13;;
10890;SDS011;5498;50.928;11.598;2022-08-19T05:56:19;1091.37;;;997.40;;
10890;SDS011;5498;50.928;11.598;2022-08-19T05:59:23;1081.77;;;989.47;;
10890;SDS011;5498;50.928;11.598;2022-08-19T06:02:25;1087.37;;;993.67;;
10890;SDS011;5498;50.928;11.598;2022-08-19T06:05:27;1078.23;;;985.63;;
10890;SDS011;5498;50.928;11.598;2022-08-19T06:08:29;1097.83;;;999.40;;
10890;SDS011;5498;50.928;11.598;2022-08-19T06:11:33;1102.00;;;999.90;;
10890;SDS011;5498;50.928;11.598;2022-08-19T06:14:39;1102.80;;;999.90;;
10890;SDS011;5498;50.928;11.598;2022-08-19T06:17:42;1080.63;;;988.30;;
10890;SDS011;5498;50.928;11.598;2022-08-19T06:20:45;1083.77;;;991.23;;
10890;SDS011;5498;50.928;11.598;2022-08-19T06:23:47;1098.30;;;999.07;;
10890;SDS011;5498;50.928;11.598;2022-08-19T06:26:52;1110.47;;;999.90;;
10890;SDS011;5498;50.928;11.598;2022-08-19T06:29:57;1099.83;;;999.90;;
10890;SDS011;5498;50.928;11.598;2022-08-19T06:32:59;1108.80;;;999.90;;
10890;SDS011;5498;50.928;11.598;2022-08-19T06:36:01;1106.57;;;999.90;;
10890;SDS011;5498;50.928;11.598;2022-08-19T06:39:05;1113.73;;;999.90;;
10890;SDS011;5498;50.928;11.598;2022-08-19T06:42:10;1105.07;;;999.90;;
10890;SDS011;5498;50.928;11.598;2022-08-19T06:45:17;1097.23;;;998.90;;
10890;SDS011;5498;50.928;11.598;2022-08-19T06:48:20;1105.57;;;999.90;;
10890;SDS011;5498;50.928;11.598;2022-08-19T06:51:22;1086.33;;;992.20;;
10890;SDS011;5498;50.928;11.598;2022-08-19T06:54:25;1090.67;;;996.63;;
10890;SDS011;5498;50.928;11.598;2022-08-19T06:57:29;1095.60;;;998.90;;
10890;SDS011;5498;50.928;11.598;2022-08-19T07:00:34;1090.87;;;997.23;;
10890;SDS011;5498;50.928;11.598;2022-08-19T07:03:36;1103.13;;;999.90;;
10890;SDS011;5498;50.928;11.598;2022-08-19T07:06:39;1100.73;;;999.90;;
10890;SDS011;5498;50.928;11.598;2022-08-19T07:09:42;1058.63;;;967.30;;
10890;SDS011;5498;50.928;11.598;2022-08-19T07:12:45;1113.57;;;999.90;;
10890;SDS011;5498;50.928;11.598;2022-08-19T07:15:49;1102.43;;;999.90;;
10890;SDS011;5498;50.928;11.598;2022-08-19T07:18:51;1110.80;;;999.90;;
10890;SDS011;5498;50.928;11.598;2022-08-19T07:21:53;1084.37;;;991.47;;
10890;SDS011;5498;50.928;11.598;2022-08-19T07:24:55;1105.97;;;999.90;;
10890;SDS011;5498;50.928;11.598;2022-08-19T07:27:57;1085.57;;;992.90;;
10890;SDS011;5498;50.928;11.598;2022-08-19T07:31:01;1100.83;;;999.90;;
10890;SDS011;5498;50.928;11.598;2022-08-19T07:34:05;1094.23;;;998.70;;
10890;SDS011;5498;50.928;11.598;2022-08-19T07:37:09;1097.53;;;999.90;;
10890;SDS011;5498;50.928;11.598;2022-08-19T07:40:11;1102.77;;;999.90;;
10890;SDS011;5498;50.928;11.598;2022-08-19T07:43:13;1094.27;;;998.30;;
10890;SDS011;5498;50.928;11.598;2022-08-19T07:46:17;1101.90;;;999.43;;
10890;SDS011;5498;50.928;11.598;2022-08-19T07:49:22;1106.80;;;999.90;;
10890;SDS011;5498;50.928;11.598;2022-08-19T07:52:24;1081.70;;;989.33;;
10890;SDS011;5498;50.928;11.598;2022-08-19T07:55:27;1100.90;;;999.90;;
10890;SDS011;5498;50.928;11.598;2022-08-19T07:58:30;1075.70;;;983.70;;
10890;SDS011;5498;50.928;11.598;2022-08-19T08:01:36;1093.37;;;997.97;;
10890;SDS011;5498;50.928;11.598;2022-08-19T08:04:40;1067.00;;;974.60;;
10890;SDS011;5498;50.928;11.598;2022-08-19T08:08:00;1077.83;;;985.33;;
10890;SDS011;5498;50.928;11.598;2022-08-19T08:11:20;1084.20;;;991.20;;
10890;SDS011;5498;50.928;11.598;2022-08-19T08:14:23;1071.80;;;979.87;;
10890;SDS011;5498;50.928;11.598;2022-08-19T08:17:29;1098.80;;;999.90;;
10890;SDS011;5498;50.928;11.598;2022-08-19T08:20:32;1086.60;;;993.30;;
10890;SDS011;5498;50.928;11.598;2022-08-19T08:23:35;1084.53;;;991.73;;
10890;SDS011;5498;50.928;11.598;2022-08-19T08:26:37;1081.37;;;989.10;;
10890;SDS011;5498;50.928;11.598;2022-08-19T08:29:39;1083.23;;;990.53;;
10890;SDS011;5498;50.928;11.598;2022-08-19T08:32:42;1117.43;;;999.90;;
10890;SDS011;5498;50.928;11.598;2022-08-19T08:35:44;1077.73;;;985.43;;
10890;SDS011;5498;50.928;11.598;2022-08-19T08:38:46;1096.40;;;997.70;;
10890;SDS011;5498;50.928;11.598;2022-08-19T08:41:51;1091.40;;;997.03;;
10890;SDS011;5498;50.928;11.598;2022-08-19T08:45:00;1097.83;;;999.10;;
10890;SDS011;5498;50.928;11.598;2022-08-19T08:48:10;1085.20;;;992.53;;
10890;SDS011;5498;50.928;11.598;2022-08-19T08:51:22;1096.63;;;998.90;;
10890;SDS011;5498;50.928;11.598;2022-08-19T08:54:32;1066.10;;;974.63;;
10890;SDS011;5498;50.928;11.598;2022-08-19T08:57:49;1074.93;;;982.93;;
10890;SDS011;5498;50.928;11.598;2022-08-19T09:00:55;1084.13;;;991.30;;
10890;SDS011;5498;50.928;11.598;2022-08-19T09:03:58;1068.50;;;976.47;;
10890;SDS011;5498;50.928;11.598;2022-08-19T09:07:04;1100.20;;;999.90;;
10890;SDS011;5498;50.928;11.598;2022-08-19T09:10:25;1079.90;;;987.17;;
10890;SDS011;5498;50.928;11.598;2022-08-19T09:13:33;1084.20;;;991.57;;
10890;SDS011;5498;50.928;11.598;2022-08-19T09:16:45;1055.50;;;964.40;;
10890;SDS011;5498;50.928;11.598;2022-08-19T09:19:51;1076.13;;;983.77;;
10890;SDS011;5498;50.928;11.598;2022-08-19T09:22:55;1050.23;;;959.63;;
10890;SDS011;5498;50.928;11.598;2022-08-19T09:25:58;1100.80;;;999.90;;
10890;SDS011;5498;50.928;11.598;2022-08-19T09:29:00;1075.63;;;983.47;;
10890;SDS011;5498;50.928;11.598;2022-08-19T09:32:05;1090.77;;;996.90;;
10890;SDS011;5498;50.928;11.598;2022-08-19T09:35:09;1079.40;;;986.67;;
10890;SDS011;5498;50.928;11.598;2022-08-19T09:38:12;1048.30;;;958.20;;
10890;SDS011;5498;50.928;11.598;2022-08-19T09:41:14;1082.83;;;990.37;;
10890;SDS011;5498;50.928;11.598;2022-08-19T09:44:18;1072.17;;;980.30;;
10890;SDS011;5498;50.928;11.598;2022-08-19T09:47:21;1058.33;;;967.37;;
10890;SDS011;5498;50.928;11.598;2022-08-19T09:50:24;1074.47;;;982.97;;
10890;SDS011;5498;50.928;11.598;2022-08-19T09:53:26;1056.17;;;965.33;;
10890;SDS011;5498;50.928;11.598;2022-08-19T09:56:29;1059.20;;;968.47;;
10890;SDS011;5498;50.928;11.598;2022-08-19T09:59:31;1113.90;;;999.90;;
10890;SDS011;5498;50.928;11.598;2022-08-19T10:02:32;1137.93;;;999.90;;
10890;SDS011;5498;50.928;11.598;2022-08-19T10:05:36;1144.93;;;999.90;;
10890;SDS011;5498;50.928;11.598;2022-08-19T10:08:51;1138.57;;;999.90;;
10890;SDS011;5498;50.928;11.598;2022-08-19T10:11:54;1127.77;;;999.90;;
10890;SDS011;5498;50.928;11.598;2022-08-19T10:14:56;1114.40;;;999.90;;
10890;SDS011;5498;50.928;11.598;2022-08-19T10:17:58;1109.37;;;999.90;;
10890;SDS011;5498;50.928;11.598;2022-08-19T10:21:06;1104.30;;;999.90;;
10890;SDS011;5498;50.928;11.598;2022-08-19T10:24:10;1103.33;;;999.90;;
10890;SDS011;5498;50.928;11.598;2022-08-19T10:27:12;1095.23;;;997.70;;
10890;SDS011;5498;50.928;11.598;2022-08-19T10:30:14;1087.77;;;993.37;;
10890;SDS011;5498;50.928;11.598;2022-08-19T10:33:16;1072.83;;;979.53;;
10890;SDS011;5498;50.928;11.598;2022-08-19T10:36:20;1069.27;;;976.03;;
10890;SDS011;5498;50.928;11.598;2022-08-19T10:39:25;1061.10;;;969.00;;
10890;SDS011;5498;50.928;11.598;2022-08-19T10:42:28;1055.67;;;963.70;;
10890;SDS011;5498;50.928;11.598;2022-08-19T10:45:31;1051.77;;;960.57;;
10890;SDS011;5498;50.928;11.598;2022-08-19T10:48:33;1035.53;;;945.30;;
10890;SDS011;5498;50.928;11.598;2022-08-19T10:51:37;1042.77;;;952.60;;
10890;SDS011;5498;50.928;11.598;2022-08-19T10:54:57;1024.03;;;934.60;;
10890;SDS011;5498;50.928;11.598;2022-08-19T10:58:17;1031.23;;;941.47;;
10890;SDS011;5498;50.928;11.598;2022-08-19T11:01:22;1030.07;;;940.50;;
10890;SDS011;5498;50.928;11.598;2022-08-19T11:04:24;1028.00;;;938.90;;
10890;SDS011;5498;50.928;11.598;2022-08-19T11:07:27;1039.90;;;950.23;;
10890;SDS011;5498;50.928;11.598;2022-08-19T11:10:30;1037.27;;;947.53;;
10890;SDS011;5498;50.928;11.598;2022-08-19T11:13:33;1035.50;;;945.93;;
10890;SDS011;5498;50.928;11.598;2022-08-19T11:16:38;1012.87;;;924.50;;
10890;SDS011;5498;50.928;11.598;2022-08-19T11:19:41;1019.53;;;930.60;;
10890;SDS011;5498;50.928;11.598;2022-08-19T11:22:44;1020.80;;;932.20;;
10890;SDS011;5498;50.928;11.598;2022-08-19T11:25:46;995.57;;;907.73;;
10890;SDS011;5498;50.928;11.598;2022-08-19T11:28:48;979.97;;;893.47;;
10890;SDS011;5498;50.928;11.598;2022-08-19T11:31:54;956.77;;;871.27;;
10890;SDS011;5498;50.928;11.598;2022-08-19T11:34:56;936.97;;;852.47;;
10890;SDS011;5498;50.928;11.598;2022-08-19T11:37:59;926.70;;;843.07;;
10890;SDS011;5498;50.928;11.598;2022-08-19T11:41:03;958.27;;;873.27;;
10890;SDS011;5498;50.928;11.598;2022-08-19T11:44:07;943.43;;;859.40;;
10890;SDS011;5498;50.928;11.598;2022-08-19T11:47:10;957.40;;;872.80;;
10890;SDS011;5498;50.928;11.598;2022-08-19T11:50:12;967.90;;;882.37;;
10890;SDS011;5498;50.928;11.598;2022-08-19T11:53:16;979.10;;;892.97;;
10890;SDS011;5498;50.928;11.598;2022-08-19T11:56:19;994.20;;;907.93;;
10890;SDS011;5498;50.928;11.598;2022-08-19T11:59:22;968.83;;;883.47;;
10890;SDS011;5498;50.928;11.598;2022-08-19T12:02:24;1013.77;;;925.97;;
10890;SDS011;5498;50.928;11.598;2022-08-19T12:05:26;997.37;;;910.63;;
10890;SDS011;5498;50.928;11.598;2022-08-19T12:08:29;1024.13;;;936.03;;
10890;SDS011;5498;50.928;11.598;2022-08-19T12:11:31;1026.70;;;938.33;;
10890;SDS011;5498;50.928;11.598;2022-08-19T12:14:33;989.90;;;903.57;;
10890;SDS011;5498;50.928;11.598;2022-08-19T12:17:35;1006.10;;;919.03;;
10890;SDS011;5498;50.928;11.598;2022-08-19T12:20:38;1012.67;;;925.00;;
10890;SDS011;5498;50.928;11.598;2022-08-19T12:23:45;1026.53;;;938.17;;
10890;SDS011;5498;50.928;11.598;2022-08-19T12:26:46;1035.93;;;947.27;;
10890;SDS011;5498;50.928;11.598;2022-08-19T12:29:48;1024.00;;;935.50;;
10890;SDS011;5498;50.928;11.598;2022-08-19T12:32:50;1050.33;;;960.57;;
10890;SDS011;5498;50.928;11.598;2022-08-19T12:35:52;1032.23;;;943.47;;
10890;SDS011;5498;50.928;11.598;2022-08-19T12:38:57;1028.37;;;939.40;;
10890;SDS011;5498;50.928;11.598;2022-08-19T12:41:59;1055.03;;;964.97;;
10890;SDS011;5498;50.928;11.598;2022-08-19T12:45:01;1059.77;;;968.77;;
10890;SDS011;5498;50.928;11.598;2022-08-19T12:48:05;1068.97;;;978.07;;
10890;SDS011;5498;50.928;11.598;2022-08-19T12:51:08;1042.87;;;951.90;;
10890;SDS011;5498;50.928;11.598;2022-08-19T12:54:15;1063.47;;;972.77;;
10890;SDS011;5498;50.928;11.598;2022-08-19T12:57:17;1080.67;;;988.47;;
10890;SDS011;5498;50.928;11.598;2022-08-19T13:00:21;1057.67;;;966.93;;
10890;SDS011;5498;50.928;11.598;2022-08-19T13:03:23;1046.73;;;956.30;;
10890;SDS011;5498;50.928;11.598;2022-08-19T13:06:29;1077.70;;;985.63;;
10890;SDS011;5498;50.928;11.598;2022-08-19T13:09:32;1073.03;;;981.60;;
10890;SDS011;5498;50.928;11.598;2022-08-19T13:12:34;1067.73;;;976.73;;
10890;SDS011;5498;50.928;11.598;2022-08-19T13:15:37;1072.60;;;981.00;;
10890;SDS011;5498;50.928;11.598;2022-08-19T13:18:44;1091.67;;;997.87;;
10890;SDS011;5498;50.928;11.598;2022-08-19T13:21:48;1090.37;;;995.90;;
10890;SDS011;5498;50.928;11.598;2022-08-19T13:24:54;1079.87;;;987.77;;
10890;SDS011;5498;50.928;11.598;2022-08-19T13:27:58;1058.33;;;967.67;;
10890;SDS011;5498;50.928;11.598;2022-08-19T13:31:01;1070.10;;;978.10;;
10890;SDS011;5498;50.928;11.598;2022-08-19T13:34:26;1089.50;;;994.93;;
10890;SDS011;5498;50.928;11.598;2022-08-19T13:37:32;1066.73;;;975.67;;
10890;SDS011;5498;50.928;11.598;2022-08-19T13:40:47;1079.57;;;987.57;;
10890;SDS011;5498;50.928;11.598;2022-08-19T13:43:50;1069.10;;;977.43;;
10890;SDS011;5498;50.928;11.598;2022-08-19T13:46:52;1089.50;;;996.13;;
10890;SDS011;5498;50.928;11.598;2022-08-19T13:49:54;1093.47;;;998.53;;
10890;SDS011;5498;50.928;11.598;2022-08-19T13:52:56;1107.10;;;999.90;;
10890;SDS011;5498;50.928;11.598;2022-08-19T13:55:59;995.90;;;908.87;;
10890;SDS011;5498;50.928;11.598;2022-08-19T13:59:01;1065.77;;;974.80;;
10890;SDS011;5498;50.928;11.598;2022-08-19T14:02:03;1089.53;;;995.03;;
10890;SDS011;5498;50.928;11.598;2022-08-19T14:05:08;1091.53;;;996.70;;
10890;SDS011;5498;50.928;11.598;2022-08-19T14:08:13;1106.67;;;999.90;;
10890;SDS011;5498;50.928;11.598;2022-08-19T14:11:16;1117.80;;;999.90;;
10890;SDS011;5498;50.928;11.598;2022-08-19T14:14:19;1090.00;;;996.30;;
10890;SDS011;5498;50.928;11.598;2022-08-19T14:17:21;1105.87;;;999.90;;
10890;SDS011;5498;50.928;11.598;2022-08-19T14:20:25;1110.47;;;999.90;;
10890;SDS011;5498;50.928;11.598;2022-08-19T14:23:27;1107.20;;;999.90;;
10890;SDS011;5498;50.928;11.598;2022-08-19T14:26:30;1103.43;;;999.90;;
10890;SDS011;5498;50.928;11.598;2022-08-19T14:29:32;1100.07;;;999.90;;
10890;SDS011;5498;50.928;11.598;2022-08-19T14:32:40;1094.27;;;997.93;;
10890;SDS011;5498;50.928;11.598;2022-08-19T14:35:44;1095.73;;;998.00;;
10890;SDS011;5498;50.928;11.598;2022-08-19T14:38:46;1089.03;;;995.57;;
10890;SDS011;5498;50.928;11.598;2022-08-19T14:41:49;1099.50;;;999.23;;
10890;SDS011;5498;50.928;11.598;2022-08-19T14:44:52;1096.60;;;999.83;;
10890;SDS011;5498;50.928;11.598;2022-08-19T14:47:54;1093.17;;;997.90;;
10890;SDS011;5498;50.928;11.598;2022-08-19T14:50:56;1074.03;;;982.77;;
10890;SDS011;5498;50.928;11.598;2022-08-19T14:53:58;1065.13;;;974.43;;
10890;SDS011;5498;50.928;11.598;2022-08-19T14:57:01;1073.47;;;982.33;;
10890;SDS011;5498;50.928;11.598;2022-08-19T15:00:04;1046.60;;;957.03;;
10890;SDS011;5498;50.928;11.598;2022-08-19T15:03:11;1074.83;;;983.80;;
10890;SDS011;5498;50.928;11.598;2022-08-19T15:06:13;1051.27;;;961.60;;
10890;SDS011;5498;50.928;11.598;2022-08-19T15:09:16;1037.40;;;948.50;;
10890;SDS011;5498;50.928;11.598;2022-08-19T15:12:19;1040.50;;;951.70;;
10890;SDS011;5498;50.928;11.598;2022-08-19T15:15:22;1057.97;;;968.17;;
10890;SDS011;5498;50.928;11.598;2022-08-19T15:18:24;1034.57;;;945.67;;
10890;SDS011;5498;50.928;11.598;2022-08-19T15:21:26;1086.17;;;994.13;;
10890;SDS011;5498;50.928;11.598;2022-08-19T15:24:30;1043.83;;;954.20;;
10890;SDS011;5498;50.928;11.598;2022-08-19T15:27:34;1062.17;;;971.30;;
10890;SDS011;5498;50.928;11.598;2022-08-19T15:30:39;1039.97;;;950.50;;
10890;SDS011;5498;50.928;11.598;2022-08-19T15:33:44;1071.83;;;980.50;;
10890;SDS011;5498;50.928;11.598;2022-08-19T15:36:48;1042.47;;;952.77;;
10890;SDS011;5498;50.928;11.598;2022-08-19T15:39:50;1042.00;;;952.50;;
10890;SDS011;5498;50.928;11.598;2022-08-19T15:42:53;1050.23;;;960.53;;
10890;SDS011;5498;50.928;11.598;2022-08-19T15:45:57;1035.90;;;946.70;;
10890;SDS011;5498;50.928;11.598;2022-08-19T15:49:00;1034.67;;;945.70;;
10890;SDS011;5498;50.928;11.598;2022-08-19T15:52:03;1055.43;;;965.47;;
10890;SDS011;5498;50.928;11.598;2022-08-19T15:55:06;1064.50;;;973.57;;
10890;SDS011;5498;50.928;11.598;2022-08-19T15:58:20;1058.73;;;968.23;;
10890;SDS011;5498;50.928;11.598;2022-08-19T16:02:04;1047.97;;;957.93;;
10890;SDS011;5498;50.928;11.598;2022-08-19T16:05:27;1065.33;;;974.63;;
10890;SDS011;5498;50.928;11.598;2022-08-19T16:08:46;1063.87;;;973.17;;
10890;SDS011;5498;50.928;11.598;2022-08-19T16:11:49;1053.43;;;963.30;;
10890;SDS011;5498;50.928;11.598;2022-08-19T16:14:57;1054.90;;;964.67;;
10890;SDS011;5498;50.928;11.598;2022-08-19T16:18:02;1089.03;;;996.20;;
10890;SDS011;5498;50.928;11.598;2022-08-19T16:21:05;1064.90;;;973.83;;
10890;SDS011;5498;50.928;11.598;2022-08-19T16:24:08;1069.77;;;978.73;;
10890;SDS011;5498;50.928;11.598;2022-08-19T16:27:13;1075.43;;;984.13;;
10890;SDS011;5498;50.928;11.598;2022-08-19T16:30:17;1057.30;;;967.13;;
10890;SDS011;5498;50.928;11.598;2022-08-19T16:33:20;1068.87;;;978.10;;
10890;SDS011;5498;50.928;11.598;2022-08-19T16:36:22;1068.07;;;976.83;;
10890;SDS011;5498;50.928;11.598;2022-08-19T16:39:24;1073.43;;;982.27;;
10890;SDS011;5498;50.928;11.598;2022-08-19T16:42:26;1078.73;;;987.40;;
10890;SDS011;5498;50.928;11.598;2022-08-19T16:45:31;1077.67;;;986.40;;
10890;SDS011;5498;50.928;11.598;2022-08-19T16:48:33;1078.50;;;986.70;;
10890;SDS011;5498;50.928;11.598;2022-08-19T16:51:42;1071.33;;;980.33;;
10890;SDS011;5498;50.928;11.598;2022-08-19T16:54:44;1056.00;;;965.67;;
10890;SDS011;5498;50.928;11.598;2022-08-19T16:57:47;1053.40;;;963.87;;
10890;SDS011;5498;50.928;11.598;2022-08-19T17:00:54;1065.40;;;974.67;;
10890;SDS011;5498;50.928;11.598;2022-08-19T17:04:02;1053.93;;;963.97;;
10890;SDS011;5498;50.928;11.598;2022-08-19T17:07:04;1073.67;;;982.30;;
10890;SDS011;5498;50.928;11.598;2022-08-19T17:10:10;1065.17;;;974.87;;
10890;SDS011;5498;50.928;11.598;2022-08-19T17:13:12;1070.17;;;979.40;;